Flight Track Log - Related Links

Times and Time Zones

All times are in EST time to prevent confusion due to time zone crossing. See the N401NS flight status page for this flight to view local times or setup timezone preferences in your user account.

Time Position Orientation Groundspeed Altitude Reporting Facility
EST Latitude Longitude Course Direction KTS MPH feet Rate Location/Type
Wed 03:29:41 PM 33.3997 -79.3944 277° West 200 230 6,200  Level Jacksonville Center
Wed 03:30:41 PM 33.3950 -79.4444 264° West 166 191 9,100 2,900 Climbing Jacksonville Center
Wed 03:31:41 PM 33.4006 -79.4992 277° West 166 191 12,000 1,450 Climbing Jacksonville Center
Wed 03:32:41 PM 33.4086 -79.5683 278° West 179 206 12,000  Level Jacksonville Center
Wed 03:33:00 PM 33.3742 -79.8961 277° West  Level Estimated
Wed 03:33:41 PM 33.4192 -79.6550 278° West 225 259 12,000  Level Jacksonville Center
Wed 03:34:00 PM 33.3865 -80.0114 277° West  Level FlightAware Approximate
Wed 03:34:41 PM 33.4319 -79.7467 280° West 259 298 12,000  Level Jacksonville Center
Wed 03:35:41 PM 33.4428 -79.8408 278° West 283 326 12,000  Level Jacksonville Center
Wed 03:36:41 PM 33.4531 -79.9303 278° West 283 326 12,000  Level Jacksonville Center
Wed 03:37:41 PM 33.4656 -80.0169 280° West 283 326 12,000  Level Jacksonville Center
Wed 03:38:41 PM 33.4761 -80.1086 278° West 278 320 12,000  Level Jacksonville Center
Wed 03:39:41 PM 33.4864 -80.1981 278° West 278 320 12,000  Level Jacksonville Center
Wed 03:40:41 PM 33.4986 -80.2897 279° West 278 320 12,000  Level Jacksonville Center
Wed 03:41:41 PM 33.5067 -80.3792 276° West 273 314 12,000  Level Jacksonville Center
Wed 03:42:41 PM 33.5167 -80.4611 278° West 273 314 12,000  Level Jacksonville Center
Wed 03:43:41 PM 33.5289 -80.5531 279° West 273 314 12,000  Level Jacksonville Center
Wed 03:44:41 PM 33.5389 -80.6400 278° West 273 314 12,000  Level Jacksonville Center
Wed 03:45:41 PM 33.5508 -80.7317 279° West 273 314 12,000  Level Jacksonville Center
Wed 03:46:41 PM 33.5586 -80.8239 276° West 273 314 12,000  Level Jacksonville Center
Wed 03:47:41 PM 33.5706 -80.9108 279° West 273 314 12,000  Level Jacksonville Center
Wed 03:48:41 PM 33.5803 -81.0028 277° West 273 314 12,000  Level Jacksonville Center
Wed 03:49:41 PM 33.5878 -81.0950 276° West 273 314 12,000  Level Jacksonville Center
Wed 03:50:41 PM 33.5994 -81.1844 279° West 273 314 12,000  Level Jacksonville Center
Wed 03:51:41 PM 33.6089 -81.2742 277° West 273 314 12,000  Level Jacksonville Center
Wed 03:52:41 PM 33.6228 -81.3736 280° West 273 314 12,000  Level Jacksonville Center
Wed 03:53:41 PM 33.6322 -81.4656 277° West 273 314 12,000  Level Jacksonville Center
Wed 03:54:41 PM 33.6414 -81.5553 277° West 273 314 12,000  Level Jacksonville Center
Wed 03:55:41 PM 33.6508 -81.6425 277° West 273 314 12,000  Level Jacksonville Center
Wed 03:56:47 PM 33.6578 -81.7303 275° West 267 307 12,000  Level Atlanta Center
Wed 03:57:47 PM 33.6700 -81.8222 279° West 267 307 12,000 -50 Level Atlanta Center
Wed 03:58:47 PM 33.6797 -81.9094 278° West 272 313 11,900  Descending Atlanta Center
Wed 03:59:47 PM 33.6875 -81.9967 276° West 272 313 12,000 50 Climbing Atlanta Center
Wed 04:00:47 PM 33.6972 -82.0864 277° West 272 313 12,000  Level Atlanta Center
Wed 04:01:47 PM 33.7050 -82.1733 276° West 272 313 12,000 -50 Level Atlanta Center
Wed 04:02:47 PM 33.7083 -82.2608 273° West 272 313 11,900  Descending Atlanta Center
Wed 04:03:47 PM 33.6867 -82.3486 253° West 278 320 12,000 -400 Climbing Atlanta Center
Wed 04:04:47 PM 33.7169 -82.4331 293° West 260 299 11,100 -500 Descending Atlanta Center
Wed 04:05:47 PM 33.7369 -82.5275 284° West 276 318 11,000 -450 Descending Atlanta Center
Wed 04:06:47 PM 33.7653 -82.6194 290° West 276 318 10,200 -550 Descending Atlanta Center
Wed 04:07:47 PM 33.7869 -82.7117 286° West 282 325 9,900 -100 Descending Atlanta Center
Wed 04:08:47 PM 33.8089 -82.7911 288° West 282 325 10,000 50 Climbing Atlanta Center
Wed 04:09:47 PM 33.8283 -82.8808 285° West 282 325 10,000  Level Atlanta Center
Wed 04:10:47 PM 33.8522 -82.9683 288° West 282 325 10,000  Level Atlanta Center
Wed 04:11:47 PM 33.8758 -83.0581 288° West 282 325 10,000  Level Atlanta Center
Wed 04:12:47 PM 33.8994 -83.1453 288° West 282 325 10,000  Level Atlanta Center
Wed 04:13:47 PM 33.9231 -83.2353 288° West 282 325 10,000  Level Atlanta Center
Wed 04:14:47 PM 33.9508 -83.3225 291° West 282 325 10,000 -550 Level Atlanta Center
Wed 04:15:47 PM 33.9783 -83.4125 290° West 282 325 8,900 -1,200 Descending Atlanta Center
Wed 04:16:47 PM 34.0081 -83.4975 293° West 287 330 7,600 -1,350 Descending Atlanta Center
Wed 04:17:47 PM 34.0333 -83.5875 289° West 287 330 6,200 -800 Descending Atlanta Center
Wed 04:18:47 PM 34.0567 -83.6703 289° West 282 325 6,000 -100 Descending Atlanta Center
Wed 04:19:47 PM 34.0797 -83.7503 289° West 261 300 6,000  Level Atlanta Center
Wed 04:20:47 PM 34.1050 -83.8356 290° West 261 300 6,000  Level Atlanta Center
Wed 04:21:47 PM 34.1239 -83.9183 285° West 267 307 6,000  Level Atlanta Center
Wed 04:22:47 PM 34.1136 -84.0036 262° West 257 296 6,000  Level Atlanta Center
Wed 04:23:47 PM 34.1031 -84.0914 262° West 257 296 6,000  Level Atlanta Center
Wed 04:24:47 PM 34.0947 -84.1717 263° West 247 284 6,000  Level Atlanta Center
Wed 04:25:47 PM 34.0989 -84.2444 274° West 218 251 6,000  Level Atlanta Center
Wed 04:26:53 PM 34.1000 -84.3167 271° West 187 215 6,000  Level Atlanta TRACON
Wed 04:27:59 PM 34.1000 -84.3833 270° West 185 213 6,000  Level Atlanta TRACON
Wed 04:28:47 PM 34.0964 -84.4300 265° West 191 220 6,000  Level Atlanta Center
Wed 04:29:47 PM 34.1022 -84.4953 276° West 191 220 6,000  Level Atlanta Center
Wed 04:30:47 PM 34.1083 -84.5581 277° West 196 226 6,000  Level Atlanta Center
Wed 04:31:47 PM 34.0914 -84.6106 249° West 190 219 6,000 -250 Level Atlanta Center
Wed 04:32:47 PM 34.0517 -84.6431 214° Southwest 172 198 5,500 -900 Descending Atlanta Center
Wed 04:33:47 PM 34.0036 -84.6553 192° South 172 198 4,200 -1,100 Descending Atlanta Center
Wed 04:34:47 PM 33.9514 -84.6700 193° South 189 217 3,300 -650 Descending Atlanta Center
Wed 04:35:47 PM 33.9056 -84.6369 149° Southeast 191 220 2,900 -250 Descending Atlanta Center
Wed 04:36:47 PM 33.8556 -84.6042 151° Southeast 197 227 2,800 -350 Descending Atlanta Center
Wed 04:37:47 PM 33.8119 -84.5764 152° Southeast 195 224 2,200 -700 Descending Atlanta Center
Wed 04:38:47 PM 33.7786 -84.5561 153° Southeast 163 188 1,400 -550 Descending Atlanta Center
Wed 04:39:47 PM 33.7472 -84.5308 146° Southeast 135 155 1,100 -300 Descending Atlanta Center
Wed 04:41:00 PM 33.7791 -84.5214 14° North  Level Estimated

Login

Don't have an account? Register now (free) for customized features, flight alerts, and more!